Terminal Aerodrome Forecast
Issued by NWS Mt. Holly, NJ

Home | Current Version | Previous Version | Text Only | Print | Product List | Glossary On
Versions: 1 2 3 4 5 6 7 8 9 10 11 12 13 14 15 16 17 18 19 20 21 22
823
FTUS41 KPHI 111720
TAFRDG
TAF
KRDG 111720Z 1118/1218 28010KT P6SM SCT250
     FM112000 22005KT P6SM SCT250
     FM120000 16004KT P6SM SCT250
     FM120500 14005KT P6SM OVC120
     FM120700 14005KT P6SM OVC100 PROB30 1207/1210 5SM -SN
     FM121500 20007KT P6SM BKN060=

USA.gov is the U.S. government's official web portal to all federal, state and local government web resources and services.